Time;durP1;ratioP1;P1;durP2;ratioP2;P2;SDS_P1;SDS_P2;PMS_P1;PMS_P2;Temp;Humidity;BMP_temperature;BMP_pressure;BME280_temperature;BME280_humidity;BME280_pressure;Samples;Min_cycle;Max_cycle;Signal;HPM_P1;HPM_P2
2022/03/14 00:00:10;;;;;;;54.50;35.40;;;;;;;2.80;45.66;95734.16;5078708;28;20420;-76
2022/03/14 00:02:37;;;;;;;51.20;36.63;;;;;;;2.76;46.43;95731.97;5077097;28;20427;-76
2022/03/14 00:05:06;;;;;;;58.87;36.90;;;;;;;2.18;47.62;95740.63;5059289;28;20519;-76
2022/03/14 00:07:36;;;;;;;48.38;34.15;;;;;;;2.53;46.90;95737.94;5078069;28;20427;-76
2022/03/14 00:10:03;;;;;;;51.70;34.60;;;;;;;2.57;46.95;95733.38;5074289;28;20201;-76
2022/03/14 00:12:30;;;;;;;54.30;35.03;;;;;;;2.29;47.76;95742.41;5070758;28;20187;-76
2022/03/14 00:14:56;;;;;;;52.75;34.72;;;;;;;2.10;48.31;95738.59;5063843;28;20565;-75
2022/03/14 00:17:24;;;;;;;60.50;35.67;;;;;;;2.26;47.84;95745.22;5061149;28;20191;-76
2022/03/14 00:19:50;;;;;;;52.20;37.13;;;;;;;2.38;47.53;95748.63;5047828;28;20179;-76
2022/03/14 00:22:17;;;;;;;47.50;35.13;;;;;;;2.50;47.66;95748.53;5057819;28;20175;-76
2022/03/14 00:24:43;;;;;;;50.53;36.67;;;;;;;2.49;48.27;95743.47;5046227;28;20795;-76
2022/03/14 00:27:08;;;;;;;50.03;34.93;;;;;;;2.48;48.10;95745.22;5064885;28;20409;-76
2022/03/14 00:29:34;;;;;;;51.90;33.80;;;;;;;2.53;47.78;95748.28;5057638;28;20229;-76
2022/03/14 00:32:00;;;;;;;52.43;32.50;;;;;;;2.65;47.74;95748.28;5036621;28;20218;-77
2022/03/14 00:34:26;;;;;;;47.27;33.73;;;;;;;3.01;47.25;95754.13;5047802;28;20199;-76
2022/03/14 00:36:51;;;;;;;53.10;36.30;;;;;;;2.82;47.37;95747.78;5032197;28;20445;-76
2022/03/14 00:39:17;;;;;;;47.93;33.67;;;;;;;2.58;47.67;95765.19;5059269;28;20186;-76
2022/03/14 00:41:43;;;;;;;47.77;34.90;;;;;;;2.78;47.91;95756.72;5062717;28;20178;-75
2022/03/14 00:44:10;;;;;;;48.03;32.87;;;;;;;2.97;47.83;95758.72;5052336;28;20872;-75
2022/03/14 00:46:37;;;;;;;45.57;33.13;;;;;;;2.42;48.65;95766.34;5046774;28;20425;-76
2022/03/14 00:49:03;;;;;;;46.73;33.43;;;;;;;2.00;49.77;95766.06;5054473;28;20422;-76
2022/03/14 00:51:28;;;;;;;47.17;32.10;;;;;;;2.34;49.76;95764.34;5067301;28;20405;-77
2022/03/14 00:53:54;;;;;;;42.00;30.70;;;;;;;2.44;48.57;95769.66;5061199;28;20179;-77
2022/03/14 00:56:21;;;;;;;52.93;34.33;;;;;;;2.09;49.36;95770.53;5062428;28;20177;-76
2022/03/14 00:58:46;;;;;;;50.92;33.03;;;;;;;2.24;49.21;95773.75;5055466;28;20277;-76
2022/03/14 01:01:11;;;;;;;43.50;31.40;;;;;;;2.36;49.27;95771.19;5050658;28;20206;-76
2022/03/14 01:03:37;;;;;;;52.70;30.77;;;;;;;2.01;49.82;95774.63;5060638;28;20233;-75
2022/03/14 01:06:03;;;;;;;46.27;28.20;;;;;;;2.09;49.55;95770.53;5057077;28;20194;-76
2022/03/14 01:08:29;;;;;;;27.73;21.03;;;;;;;2.06;49.36;95781.09;5063801;28;20178;-75
2022/03/14 01:10:54;;;;;;;34.75;23.90;;;;;;;2.06;49.42;95778.50;5053325;28;20626;-76
2022/03/14 01:13:20;;;;;;;33.87;22.10;;;;;;;2.72;47.12;95762.38;5061164;28;20237;-75
2022/03/14 01:15:47;;;;;;;31.30;21.80;;;;;;;2.29;47.95;95781.94;5033135;28;1234269;-76
2022/03/14 01:18:13;;;;;;;31.00;21.88;;;;;;;2.44;47.27;95779.16;5082594;28;20444;-76
2022/03/14 01:20:40;;;;;;;27.10;20.63;;;;;;;2.26;47.42;95786.53;5063886;28;20252;-76
2022/03/14 01:23:06;;;;;;;31.73;20.13;;;;;;;2.21;48.10;95788.63;5081549;28;20511;-76
2022/03/14 01:25:31;;;;;;;28.50;18.20;;;;;;;2.40;47.58;95777.75;5081449;28;20439;-76
2022/03/14 01:27:57;;;;;;;26.57;17.57;;;;;;;0.99;50.41;95787.06;5079506;28;20212;-76
2022/03/14 01:30:22;;;;;;;29.50;19.67;;;;;;;0.93;50.19;95785.72;5079054;28;20181;-76
2022/03/14 01:32:48;;;;;;;27.03;20.87;;;;;;;1.14;49.70;95787.75;5079120;28;20181;-76
2022/03/14 01:35:14;;;;;;;28.57;20.50;;;;;;;1.24;49.67;95788.72;5058279;28;20170;-76
2022/03/14 01:37:39;;;;;;;28.70;19.80;;;;;;;1.38;49.41;95789.50;5077433;28;21393;-76
2022/03/14 01:40:10;;;;;;;29.50;19.90;;;;;;;1.57;48.24;95789.81;5081418;28;20181;-75
2022/03/14 01:42:35;;;;;;;33.70;20.17;;;;;;;1.51;48.72;95790.28;5079273;28;20196;-75
2022/03/14 01:45:01;;;;;;;29.37;18.47;;;;;;;1.41;49.27;95784.13;5060282;28;20177;-76
2022/03/14 01:47:28;;;;;;;34.25;20.38;;;;;;;1.39;49.26;95797.13;5079950;28;20495;-77
2022/03/14 01:49:53;;;;;;;29.40;18.88;;;;;;;1.86;48.64;95794.63;5083216;28;20221;-76
2022/03/14 01:52:20;;;;;;;28.27;19.20;;;;;;;1.56;48.60;95791.59;5074851;28;20183;-76
2022/03/14 01:54:47;;;;;;;28.65;19.98;;;;;;;1.38;48.98;95799.81;5064210;28;20214;-75
2022/03/14 01:57:13;;;;;;;30.38;19.73;;;;;;;1.33;49.18;95797.56;5084617;28;20182;-75
2022/03/14 01:59:39;;;;;;;28.13;19.05;;;;;;;1.44;48.96;95799.38;5076304;28;20629;-76
2022/03/14 02:02:04;;;;;;;27.07;17.20;;;;;;;1.62;49.00;95802.41;5077967;28;20186;-76
2022/03/14 02:04:30;;;;;;;25.03;19.23;;;;;;;1.12;49.87;95802.47;5080424;28;20416;-76
2022/03/14 02:06:57;;;;;;;35.33;20.87;;;;;;;1.55;49.10;95805.41;5076999;28;20249;-77
2022/03/14 02:09:23;;;;;;;25.67;18.95;;;;;;;1.56;49.09;95804.47;5082332;28;20171;-76
2022/03/14 02:11:54;;;;;;;25.52;18.38;;;;;;;1.41;49.16;95810.75;5076831;28;20721;-76
2022/03/14 02:14:21;;;;;;;31.77;22.13;;;;;;;1.44;49.29;95809.69;5063620;28;20175;-75
2022/03/14 02:16:46;;;;;;;30.90;19.45;;;;;;;1.25;49.48;95815.31;5066243;28;20217;-76
2022/03/14 02:19:12;;;;;;;25.57;19.40;;;;;;;1.71;48.83;95815.47;5073076;28;20228;-76
2022/03/14 02:21:40;;;;;;;22.93;18.20;;;;;;;1.83;48.33;95820.69;5086279;28;20184;-76
2022/03/14 02:24:06;;;;;;;28.27;18.70;;;;;;;1.63;48.51;95815.19;5076670;28;20175;-76
2022/03/14 02:26:39;;;;;;;26.93;18.30;;;;;;;1.75;48.14;95813.50;5086584;28;20182;-76
2022/03/14 02:29:06;;;;;;;25.25;18.33;;;;;;;1.51;49.09;95826.38;5082784;28;20421;-76
2022/03/14 02:31:31;;;;;;;27.38;19.25;;;;;;;1.64;48.25;95822.00;5086845;28;20186;-75
2022/03/14 02:33:57;;;;;;;27.97;19.50;;;;;;;1.42;48.85;95827.03;5083114;28;20220;-76
2022/03/14 02:36:22;;;;;;;25.27;17.80;;;;;;;1.42;49.15;95819.28;5086204;28;20174;-76
2022/03/14 02:38:48;;;;;;;32.50;18.90;;;;;;;1.45;48.80;95830.22;5074287;28;20229;-75
2022/03/14 02:41:13;;;;;;;32.80;20.53;;;;;;;1.49;48.91;95838.56;5080477;28;20194;-76
2022/03/14 02:43:39;;;;;;;34.17;21.90;;;;;;;1.65;48.46;95833.97;5069180;28;20170;-75
2022/03/14 02:46:04;;;;;;;36.13;20.43;;;;;;;1.66;48.47;95845.91;5062033;28;20194;-76
2022/03/14 02:48:30;;;;;;;28.50;21.40;;;;;;;1.54;48.60;95846.81;5057795;28;20231;-75
2022/03/14 02:50:56;;;;;;;26.83;20.03;;;;;;;1.61;48.37;95850.56;5068526;28;20217;-76
2022/03/14 02:53:21;;;;;;;31.47;22.90;;;;;;;1.70;48.55;95852.50;5086239;28;20419;-75
2022/03/14 02:55:47;;;;;;;30.97;21.17;;;;;;;1.82;48.75;95850.81;5082553;28;20178;-75
2022/03/14 02:58:12;;;;;;;39.10;25.80;;;;;;;1.73;49.43;95852.28;5079002;28;20209;-76
2022/03/14 03:00:38;;;;;;;34.03;23.20;;;;;;;2.21;48.02;95856.59;5056786;28;20181;-76
2022/03/14 03:03:06;;;;;;;36.17;22.77;;;;;;;2.04;48.55;95855.25;5070374;28;20182;-76
2022/03/14 03:05:32;;;;;;;33.45;23.02;;;;;;;2.12;48.00;95862.44;5078575;28;20169;-76
2022/03/14 03:08:01;;;;;;;31.83;21.98;;;;;;;2.03;48.36;95869.09;5086304;28;20174;-75
2022/03/14 03:10:34;;;;;;;35.45;22.20;;;;;;;2.08;48.63;95863.59;5071698;28;20201;-76
2022/03/14 03:13:00;;;;;;;30.40;23.10;;;;;;;1.63;49.25;95865.94;5082334;28;20181;-75
2022/03/14 03:15:25;;;;;;;31.20;20.87;;;;;;;1.47;49.02;95861.88;5071950;28;20289;-75
2022/03/14 03:17:52;;;;;;;35.43;20.70;;;;;;;1.64;48.82;95868.44;5066132;28;20171;-75
2022/03/14 03:20:18;;;;;;;26.35;20.70;;;;;;;1.75;48.82;95867.69;5050241;28;20636;-76
2022/03/14 03:22:43;;;;;;;24.03;18.43;;;;;;;2.09;47.44;95876.41;5086071;28;20253;-75
2022/03/14 03:25:09;;;;;;;25.33;19.63;;;;;;;1.65;47.71;95875.25;5072392;28;20183;-76
2022/03/14 03:27:35;;;;;;;27.80;19.63;;;;;;;1.54;48.82;95873.41;5086067;28;20182;-75
2022/03/14 03:30:01;;;;;;;30.33;20.70;;;;;;;1.52;49.29;95877.06;5073611;28;20199;-75
2022/03/14 03:32:26;;;;;;;31.80;19.63;;;;;;;1.47;49.76;95881.69;5073246;28;20205;-76
2022/03/14 03:34:52;;;;;;;27.43;20.10;;;;;;;1.55;50.53;95885.38;5056929;28;20464;-76
2022/03/14 03:37:18;;;;;;;22.73;16.50;;;;;;;1.59;50.39;95890.31;5079506;28;20693;-76
2022/03/14 03:39:44;;;;;;;30.50;20.03;;;;;;;1.04;50.82;95889.81;5065805;28;20167;-75
2022/03/14 03:42:10;;;;;;;27.60;17.95;;;;;;;1.17;51.12;95891.44;5079652;28;20175;-76
2022/03/14 03:44:36;;;;;;;24.42;18.88;;;;;;;1.22;50.65;95893.72;5065191;28;20183;-76
2022/03/14 03:47:02;;;;;;;25.83;18.33;;;;;;;1.14;50.72;95896.00;5081058;28;20187;-76
2022/03/14 03:49:28;;;;;;;27.83;16.65;;;;;;;1.17;50.47;95895.78;5067768;28;20609;-75
2022/03/14 03:51:53;;;;;;;24.40;17.47;;;;;;;0.86;50.49;95904.78;5061639;28;20220;-75
2022/03/14 03:54:20;;;;;;;25.37;18.20;;;;;;;0.96;50.38;95913.53;5049557;28;20175;-75
2022/03/14 03:56:46;;;;;;;26.70;19.15;;;;;;;1.22;49.96;95903.22;5078665;28;20188;-75
2022/03/14 03:59:11;;;;;;;27.33;19.63;;;;;;;1.15;50.20;95897.63;5049726;28;20270;-76
2022/03/14 04:01:37;;;;;;;23.43;18.07;;;;;;;0.93;50.64;95909.41;5079863;28;20190;-76
2022/03/14 04:04:03;;;;;;;29.20;18.67;;;;;;;1.01;50.52;95911.47;5065400;28;20171;-75
2022/03/14 04:06:30;;;;;;;24.40;18.17;;;;;;;1.24;50.36;95914.25;5064061;28;20447;-76
2022/03/14 04:08:58;;;;;;;28.27;19.42;;;;;;;0.97;50.13;95915.19;5070782;28;20189;-76
2022/03/14 04:11:24;;;;;;;23.50;17.63;;;;;;;1.05;50.56;95917.25;5051473;28;20195;-76
2022/03/14 04:13:51;;;;;;;23.87;17.83;;;;;;;0.94;50.65;95921.34;5083729;28;20181;-75
2022/03/14 04:16:18;;;;;;;23.42;17.85;;;;;;;1.06;49.72;95918.88;5069510;28;20230;-76
2022/03/14 04:18:46;;;;;;;27.77;20.40;;;;;;;1.04;50.45;95923.31;5077724;28;20655;-75
2022/03/14 04:21:14;;;;;;;33.70;17.90;;;;;;;1.05;51.07;95924.97;5050576;28;20185;-76
2022/03/14 04:23:39;;;;;;;36.53;20.77;;;;;;;0.97;50.62;95926.31;5085088;28;20181;-75
2022/03/14 04:26:05;;;;;;;29.37;19.73;;;;;;;1.28;49.66;95926.00;5079319;28;20694;-76
2022/03/14 04:28:30;;;;;;;28.10;19.70;;;;;;;1.15;50.32;95931.97;5085673;28;20210;-76
2022/03/14 04:30:56;;;;;;;27.77;19.53;;;;;;;1.08;50.48;95933.34;5065603;28;20208;-76
2022/03/14 04:33:21;;;;;;;31.77;19.33;;;;;;;1.10;50.14;95939.22;5064087;28;20192;-75
2022/03/14 04:35:47;;;;;;;30.10;20.50;;;;;;;1.21;50.22;95941.03;5068236;28;20213;-76
2022/03/14 04:38:13;;;;;;;31.67;21.53;;;;;;;1.19;50.05;95947.22;5082564;28;20178;-76
2022/03/14 04:40:39;;;;;;;30.67;20.45;;;;;;;1.04;50.92;95952.47;5075381;28;20174;-75
2022/03/14 04:43:09;;;;;;;27.97;20.77;;;;;;;1.13;50.56;95953.63;5075194;28;20187;-75
2022/03/14 04:45:36;;;;;;;25.77;20.15;;;;;;;0.96;51.44;95955.56;5071267;28;20265;-76
2022/03/14 04:48:04;;;;;;;28.00;20.60;;;;;;;1.14;51.17;95958.69;5086679;28;20178;-76
2022/03/14 04:50:29;;;;;;;38.60;21.63;;;;;;;1.21;50.84;95953.09;5077880;28;20193;-76
2022/03/14 04:52:55;;;;;;;27.27;21.10;;;;;;;1.27;50.93;95965.56;5077389;28;20248;-75
2022/03/14 04:55:21;;;;;;;30.40;20.20;;;;;;;1.26;51.01;95958.78;5077209;28;20233;-76
2022/03/14 04:57:46;;;;;;;29.83;20.87;;;;;;;1.12;51.68;95970.00;5076951;28;20260;-76
2022/03/14 05:00:12;;;;;;;31.40;21.30;;;;;;;1.26;50.90;95979.41;5073830;28;20440;-77
2022/03/14 05:02:38;;;;;;;33.67;21.83;;;;;;;1.25;51.16;95983.75;5088036;28;20268;-76
2022/03/14 05:05:04;;;;;;;33.83;23.23;;;;;;;0.70;52.67;95990.81;5071744;28;20203;-76
2022/03/14 05:07:29;;;;;;;30.43;22.33;;;;;;;1.11;51.31;95994.16;5076373;28;20428;-76
2022/03/14 05:09:54;;;;;;;28.77;19.67;;;;;;;1.30;50.98;95996.31;5080634;28;20467;-76
2022/03/14 05:12:20;;;;;;;34.10;21.30;;;;;;;1.08;51.33;96000.34;5074319;28;20192;-76
2022/03/14 05:14:50;;;;;;;29.57;22.20;;;;;;;1.17;50.68;96004.06;5065167;28;20222;-75
2022/03/14 05:17:16;;;;;;;35.78;23.15;;;;;;;1.14;50.96;96009.44;5080182;28;20443;-76
2022/03/14 05:19:42;;;;;;;28.55;19.85;;;;;;;1.02;51.18;96010.22;5076169;28;20166;-76
2022/03/14 05:22:07;;;;;;;26.40;19.23;;;;;;;1.35;49.00;96009.75;5086026;28;20184;-76
2022/03/14 05:24:32;;;;;;;26.70;19.53;;;;;;;1.26;48.61;96011.16;5074196;28;20157;-76
2022/03/14 05:26:58;;;;;;;31.67;21.00;;;;;;;1.30;48.96;96012.63;5086089;28;20185;-75
2022/03/14 05:29:24;;;;;;;29.63;20.80;;;;;;;1.40;48.39;96024.88;5079823;28;20205;-75
2022/03/14 05:31:49;;;;;;;25.83;20.00;;;;;;;1.38;48.67;96026.75;5067092;28;20171;-76
2022/03/14 05:34:15;;;;;;;33.70;22.77;;;;;;;1.55;48.64;96031.59;5079128;28;20420;-75
2022/03/14 05:36:40;;;;;;;25.23;21.37;;;;;;;1.53;48.43;96028.28;5067376;28;20226;-76
2022/03/14 05:39:06;;;;;;;30.20;22.57;;;;;;;2.01;47.84;96030.19;5081742;28;20181;-75
2022/03/14 05:41:32;;;;;;;27.98;20.52;;;;;;;2.03;46.64;96033.47;5086557;28;20169;-75
2022/03/14 05:43:58;;;;;;;29.27;20.43;;;;;;;1.52;48.23;96032.63;5066259;28;20256;-75
2022/03/14 05:46:23;;;;;;;30.10;20.20;;;;;;;1.83;47.44;96040.03;5066985;28;20187;-76
2022/03/14 05:48:49;;;;;;;26.13;21.10;;;;;;;1.80;46.97;96035.06;5079021;28;20236;-76
2022/03/14 05:51:14;;;;;;;36.33;20.07;;;;;;;2.13;46.95;96045.63;5073542;28;20194;-75
2022/03/14 05:53:40;;;;;;;27.23;18.70;;;;;;;2.25;46.50;96037.97;5070639;28;20221;-76
2022/03/14 05:56:05;;;;;;;27.23;19.47;;;;;;;2.06;46.16;96044.41;5053967;28;20196;-76
2022/03/14 05:58:31;;;;;;;22.80;19.60;;;;;;;2.16;46.03;96047.16;5059127;28;20232;-75
2022/03/14 06:00:57;;;;;;;24.33;18.05;;;;;;;2.51;45.17;96044.69;5071349;28;20201;-75
2022/03/14 06:03:23;;;;;;;32.53;19.40;;;;;;;2.61;45.33;96049.19;5085610;28;20224;-76
2022/03/14 06:05:50;;;;;;;25.77;18.60;;;;;;;2.72;44.94;96050.06;5085163;28;20233;-76
2022/03/14 06:08:18;;;;;;;29.88;19.75;;;;;;;2.85;44.81;96051.78;5085753;28;20988;-76
2022/03/14 06:10:46;;;;;;;26.00;19.53;;;;;;;2.90;43.81;96047.06;5070547;28;20198;-76
2022/03/14 06:13:15;;;;;;;32.40;22.80;;;;;;;2.86;44.59;96050.81;5085993;28;20416;-75
2022/03/14 06:15:45;;;;;;;36.13;24.03;;;;;;;3.02;44.22;96053.94;5080067;28;20225;-76
2022/03/14 06:18:10;;;;;;;35.00;23.27;;;;;;;3.33;43.14;96057.66;5075001;28;20455;-76
2022/03/14 06:20:37;;;;;;;39.40;23.70;;;;;;;3.35;43.27;96060.16;5084055;28;20186;-75
2022/03/14 06:23:02;;;;;;;36.85;25.08;;;;;;;3.53;43.03;96060.53;5085623;28;20170;-76
2022/03/14 06:25:28;;;;;;;38.03;24.70;;;;;;;3.50;42.95;96058.19;5083063;28;20264;-76
2022/03/14 06:27:54;;;;;;;37.53;25.67;;;;;;;3.51;42.50;96062.44;5072490;28;20265;-76
2022/03/14 06:30:19;;;;;;;43.43;27.73;;;;;;;3.54;42.97;96069.94;5063381;28;20199;-76
2022/03/14 06:32:47;;;;;;;40.90;27.50;;;;;;;3.76;42.58;96070.94;5073994;28;20551;-75
2022/03/14 06:35:14;;;;;;;45.10;28.90;;;;;;;3.74;42.12;96070.19;5070729;28;20193;-75
2022/03/14 06:37:40;;;;;;;46.20;29.73;;;;;;;3.85;42.17;96072.78;5083955;28;20442;-76
2022/03/14 06:40:06;;;;;;;33.80;24.63;;;;;;;3.69;42.16;96076.56;5081718;28;20423;-76
2022/03/14 06:42:32;;;;;;;44.13;27.97;;;;;;;3.84;40.99;96082.34;5063880;28;20749;-75
2022/03/14 06:45:01;;;;;;;34.40;25.87;;;;;;;3.77;41.63;96080.31;5067603;28;20440;-76
2022/03/14 06:47:26;;;;;;;37.80;25.87;;;;;;;3.88;41.83;96080.34;5064436;28;20860;-76
2022/03/14 06:49:52;;;;;;;46.63;24.60;;;;;;;4.16;41.61;96081.63;5075036;28;20460;-76
2022/03/14 06:52:17;;;;;;;40.47;27.00;;;;;;;4.21;40.90;96094.22;5084757;28;20185;-76
2022/03/14 06:54:43;;;;;;;37.70;25.67;;;;;;;3.86;41.88;96090.81;5048427;28;20170;-76
2022/03/14 06:57:10;;;;;;;43.17;25.87;;;;;;;3.97;41.56;96094.34;5074074;28;20188;-75
2022/03/14 06:59:36;;;;;;;35.27;27.03;;;;;;;4.00;41.44;96097.50;5076508;28;20167;-75
2022/03/14 07:02:02;;;;;;;33.53;25.60;;;;;;;4.07;41.07;96096.09;5078449;28;20883;-75
2022/03/14 07:04:29;;;;;;;29.90;24.03;;;;;;;4.21;40.09;96100.25;5070736;28;20423;-75
2022/03/14 07:06:54;;;;;;;34.13;25.13;;;;;;;4.00;40.51;96104.47;5078631;28;20458;-75
2022/03/14 07:09:20;;;;;;;39.23;28.50;;;;;;;4.18;40.91;96102.25;5070049;28;20429;-75
2022/03/14 07:11:51;;;;;;;43.37;30.03;;;;;;;4.13;40.88;96104.34;5081216;28;20265;-76
2022/03/14 07:14:18;;;;;;;43.50;29.00;;;;;;;4.57;40.06;96110.44;5060437;28;20254;-75
2022/03/14 07:16:44;;;;;;;44.43;28.57;;;;;;;4.74;39.51;96101.31;5073223;28;20587;-75
2022/03/14 07:19:09;;;;;;;41.43;28.37;;;;;;;4.33;40.11;96102.84;5070813;28;20428;-75
2022/03/14 07:21:35;;;;;;;34.80;25.50;;;;;;;4.33;38.92;96105.41;5073643;28;20186;-75
2022/03/14 07:24:00;;;;;;;39.03;25.60;;;;;;;4.67;38.63;96101.00;5068545;28;20185;-76
2022/03/14 07:26:25;;;;;;;36.33;24.73;;;;;;;4.40;39.04;96104.81;5075732;28;20215;-75
2022/03/14 07:28:51;;;;;;;58.30;26.83;;;;;;;4.82;38.36;96107.56;5067600;28;20626;-76
2022/03/14 07:31:18;;;;;;;38.77;25.43;;;;;;;4.73;38.77;96104.88;5043688;28;20300;-75
2022/03/14 07:33:44;;;;;;;72.77;28.63;;;;;;;4.85;38.39;96104.72;5044630;28;20186;-75
2022/03/14 07:36:11;;;;;;;37.50;25.80;;;;;;;4.50;39.38;96107.50;5073972;28;20419;-75
2022/03/14 07:38:37;;;;;;;40.50;28.43;;;;;;;4.26;39.86;96112.84;5083080;28;20416;-75
2022/03/14 07:41:03;;;;;;;32.03;23.87;;;;;;;4.75;38.96;96111.59;5058266;28;20423;-76
2022/03/14 07:43:28;;;;;;;33.10;24.60;;;;;;;4.82;39.09;96110.16;5088389;28;20412;-75
2022/03/14 07:45:54;;;;;;;37.67;26.13;;;;;;;4.76;38.92;96115.00;5068914;28;20225;-75
2022/03/14 07:48:19;;;;;;;40.90;29.37;;;;;;;4.84;39.33;96118.63;5082340;28;20225;-75
2022/03/14 07:50:45;;;;;;;43.40;27.90;;;;;;;5.26;38.92;96112.72;5076015;28;20194;-75
2022/03/14 07:53:10;;;;;;;42.07;27.00;;;;;;;5.46;38.63;96103.28;5059273;28;20186;-75
2022/03/14 07:55:36;;;;;;;44.80;29.80;;;;;;;5.43;38.68;96116.53;5069991;28;20183;-75
2022/03/14 07:58:02;;;;;;;40.17;27.97;;;;;;;5.56;38.23;96104.19;5079502;28;20250;-75
2022/03/14 08:00:28;;;;;;;36.30;26.10;;;;;;;5.90;38.12;96106.56;5070048;28;20174;-76
2022/03/14 08:02:55;;;;;;;36.87;28.23;;;;;;;5.44;38.29;96111.22;5074902;28;20452;-75
2022/03/14 08:05:24;;;;;;;49.67;29.73;;;;;;;5.73;38.39;96094.16;5059922;28;20200;-75
2022/03/14 08:07:50;;;;;;;34.27;25.83;;;;;;;5.81;37.96;96099.56;5065178;28;20436;-76
2022/03/14 08:10:17;;;;;;;70.50;29.73;;;;;;;6.18;36.92;96097.28;5074231;28;20484;-75
2022/03/14 08:12:49;;;;;;;77.20;29.30;;;;;;;5.97;37.86;96106.91;5068637;28;20433;-75
2022/03/14 08:15:32;;;;;;;46.27;27.27;;;;;;;7.04;36.23;96096.81;5064220;28;20472;-75
2022/03/14 08:18:00;;;;;;;48.00;27.00;;;;;;;7.44;35.28;96103.66;5077313;28;20413;-75
2022/03/14 08:20:27;;;;;;;37.23;25.30;;;;;;;6.93;36.26;96104.75;5077653;28;20436;-75
2022/03/14 08:22:55;;;;;;;39.00;26.87;;;;;;;7.32;35.48;96104.75;5081587;28;20441;-76
2022/03/14 08:25:21;;;;;;;32.67;25.77;;;;;;;7.63;34.26;96098.41;5075906;28;20431;-76
2022/03/14 08:27:47;;;;;;;33.93;26.00;;;;;;;8.03;34.33;96093.94;5075522;28;20432;-75
2022/03/14 08:30:14;;;;;;;50.63;26.57;;;;;;;8.50;33.75;96096.53;5080733;28;20468;-75
2022/03/14 08:32:39;;;;;;;41.63;26.30;;;;;;;8.87;32.75;96098.22;5076565;28;20441;-75
2022/03/14 08:35:10;;;;;;;34.47;26.47;;;;;;;8.90;33.09;96091.91;5075124;28;20431;-76
2022/03/14 08:37:38;;;;;;;35.53;26.17;;;;;;;8.49;33.86;96104.50;5081705;28;20181;-75
2022/03/14 08:40:07;;;;;;;35.43;25.70;;;;;;;9.18;32.09;96096.09;5083592;28;20471;-75
2022/03/14 08:42:33;;;;;;;34.70;25.77;;;;;;;9.56;31.96;96098.50;5079272;28;20448;-76
2022/03/14 08:44:58;;;;;;;33.37;26.73;;;;;;;9.41;32.29;96100.88;5083183;28;20420;-76
2022/03/14 08:47:25;;;;;;;30.20;24.00;;;;;;;9.37;31.64;96100.34;5084306;28;20182;-76
2022/03/14 08:49:51;;;;;;;33.93;25.47;;;;;;;9.47;31.68;96100.25;5077415;28;20210;-76
2022/03/14 08:52:16;;;;;;;32.73;22.70;;;;;;;9.66;31.49;96099.25;5077435;28;20433;-75
2022/03/14 08:54:42;;;;;;;31.17;24.43;;;;;;;10.01;30.20;96096.72;5080630;28;21183;-76
2022/03/14 08:57:08;;;;;;;30.40;23.27;;;;;;;10.15;31.29;96101.38;5074080;28;20182;-76
2022/03/14 08:59:33;;;;;;;33.27;22.70;;;;;;;10.62;29.70;96095.72;5079526;28;20178;-76
2022/03/14 09:01:59;;;;;;;29.17;24.03;;;;;;;10.97;29.53;96088.63;5075051;28;20442;-76
2022/03/14 09:04:24;;;;;;;29.20;21.37;;;;;;;11.09;28.76;96097.81;5062484;28;20177;-75
2022/03/14 09:06:50;;;;;;;25.10;20.60;;;;;;;10.85;29.23;96087.28;5058186;28;20185;-76
2022/03/14 09:09:15;;;;;;;24.57;21.13;;;;;;;11.86;28.68;96088.81;5060643;28;20192;-76
2022/03/14 09:11:41;;;;;;;23.47;20.13;;;;;;;12.36;27.72;96084.31;5097328;28;20267;-75
2022/03/14 09:14:07;;;;;;;25.47;20.93;;;;;;;12.42;27.65;96083.63;5071812;28;20178;-76
2022/03/14 09:16:35;;;;;;;21.80;14.77;;;;;;;11.62;26.74;96082.59;5079237;28;20273;-76
2022/03/14 09:19:01;;;;;;;17.40;12.80;;;;;;;11.58;26.81;96080.50;5078284;28;20204;-76
2022/03/14 09:21:27;;;;;;;29.40;14.23;;;;;;;11.99;26.67;96085.69;5081438;28;20912;-76
2022/03/14 09:23:53;;;;;;;12.17;9.73;;;;;;;10.02;27.20;96080.88;5062013;28;20250;-75
2022/03/14 09:26:18;;;;;;;34.00;12.10;;;;;;;10.98;26.52;96078.97;5075568;28;20423;-76
2022/03/14 09:28:44;;;;;;;7.47;6.00;;;;;;;9.19;28.50;96076.00;5053861;28;20530;-75
2022/03/14 09:31:14;;;;;;;9.23;7.17;;;;;;;8.58;29.17;96078.34;5074131;28;20198;-75
2022/03/14 09:33:40;;;;;;;14.87;10.33;;;;;;;9.64;29.32;96074.25;5069431;28;20448;-75
2022/03/14 09:36:06;;;;;;;16.90;11.27;;;;;;;10.13;27.97;96074.53;5081716;28;20460;-75
2022/03/14 09:38:32;;;;;;;15.90;7.67;;;;;;;10.27;26.99;96073.97;5062425;28;20794;-76
2022/03/14 09:41:03;;;;;;;8.23;4.73;;;;;;;11.09;25.60;96081.28;5065933;28;20965;-76
2022/03/14 09:43:35;;;;;;;7.83;4.03;;;;;;;9.35;27.25;96085.78;5071836;28;20417;-75
2022/03/14 09:46:03;;;;;;;4.23;3.77;;;;;;;8.55;27.54;96081.25;5061971;28;20449;-75
2022/03/14 09:48:36;;;;;;;6.13;5.23;;;;;;;9.88;27.13;96084.84;5079607;28;20474;-76
2022/03/14 09:51:02;;;;;;;6.00;5.17;;;;;;;10.29;26.58;96084.28;5065999;28;20457;-76
2022/03/14 09:53:29;;;;;;;5.37;4.73;;;;;;;11.34;24.61;96084.72;5067707;28;20416;-75
2022/03/14 09:55:56;;;;;;;14.37;5.50;;;;;;;11.36;25.13;96074.91;5056833;28;20443;-75
2022/03/14 09:58:22;;;;;;;8.63;6.90;;;;;;;10.27;26.11;96076.56;5068264;28;20440;-75
2022/03/14 10:00:50;;;;;;;6.47;5.87;;;;;;;11.02;26.15;96080.28;5065963;28;21150;-75
2022/03/14 10:03:17;;;;;;;10.70;5.60;;;;;;;10.82;26.00;96080.56;5080777;28;20425;-76
2022/03/14 10:05:44;;;;;;;6.80;6.20;;;;;;;11.28;25.99;96082.75;5066150;28;20512;-75
2022/03/14 10:08:11;;;;;;;3.73;3.43;;;;;;;10.51;26.36;96075.91;5065388;28;21297;-76
2022/03/14 10:10:37;;;;;;;5.57;4.13;;;;;;;9.88;27.58;96077.00;5076696;28;20995;-75
2022/03/14 10:13:08;;;;;;;3.93;3.53;;;;;;;10.45;26.79;96071.31;5080699;28;20436;-75
2022/03/14 10:15:40;;;;;;;6.67;4.80;;;;;;;9.99;27.00;96072.50;5074096;28;20492;-76
2022/03/14 10:18:17;;;;;;;5.97;4.50;;;;;;;11.11;25.71;96069.63;5074341;28;20414;-76
2022/03/14 10:21:05;;;;;;;8.40;4.90;;;;;;;10.99;26.06;96065.69;5077045;28;20423;-76
2022/03/14 10:23:45;;;;;;;6.13;4.43;;;;;;;10.85;25.72;96068.94;5074259;28;20745;-75
2022/03/14 10:26:16;;;;;;;2.17;2.07;;;;;;;10.07;26.28;96070.78;5079994;28;20460;-75
2022/03/14 10:28:48;;;;;;;8.57;4.93;;;;;;;9.72;26.83;96067.28;5082216;28;20431;-76
2022/03/14 10:31:34;;;;;;;3.53;2.50;;;;;;;10.38;26.26;96069.44;5074906;28;20518;-75
2022/03/14 10:34:13;;;;;;;7.67;5.60;;;;;;;11.35;25.79;96064.59;5035475;28;20448;-76
2022/03/14 10:36:43;;;;;;;7.70;4.60;;;;;;;11.74;25.09;96059.47;5067299;28;20421;-76
2022/03/14 10:39:15;;;;;;;4.40;3.60;;;;;;;10.99;24.59;96055.22;5070081;28;20430;-76
2022/03/14 10:41:41;;;;;;;9.77;4.37;;;;;;;10.12;26.06;96057.22;5054717;28;20442;-76
2022/03/14 10:44:07;;;;;;;6.20;4.57;;;;;;;10.98;26.20;96045.72;5072806;28;20439;-75
2022/03/14 10:46:39;;;;;;;5.27;4.77;;;;;;;12.53;24.06;96053.56;5058438;28;20421;-76
2022/03/14 10:49:09;;;;;;;8.77;5.77;;;;;;;12.41;24.19;96055.75;5080356;28;20435;-75
2022/03/14 10:51:51;;;;;;;6.30;5.07;;;;;;;12.54;24.83;96055.16;5068096;28;20479;-75
2022/03/14 10:54:17;;;;;;;7.70;5.50;;;;;;;13.37;23.05;96045.81;5072527;28;20449;-76
2022/03/14 10:57:02;;;;;;;7.00;5.53;;;;;;;13.45;23.58;96043.94;5080219;28;20427;-76
2022/03/14 10:59:43;;;;;;;16.27;6.33;;;;;;;13.23;23.73;96052.63;5077332;28;20937;-76
2022/03/14 11:02:11;;;;;;;5.93;4.90;;;;;;;13.75;23.16;96038.75;5071275;28;20412;-76
2022/03/14 11:04:57;;;;;;;5.40;4.90;;;;;;;13.83;22.66;96049.19;5077775;28;20923;-76
2022/03/14 11:07:33;;;;;;;6.27;5.43;;;;;;;13.33;23.18;96045.34;5076877;28;20760;-75
2022/03/14 11:10:00;;;;;;;4.73;4.33;;;;;;;11.65;24.56;96055.25;5071915;28;20554;-75
2022/03/14 11:12:28;;;;;;;5.23;4.73;;;;;;;10.22;26.34;96047.44;5076017;28;20555;-76
2022/03/14 11:14:59;;;;;;;10.43;5.93;;;;;;;12.17;24.78;96054.81;5061558;28;20465;-76
2022/03/14 11:17:25;;;;;;;7.60;6.10;;;;;;;12.81;24.51;96046.03;5074581;28;20413;-76
2022/03/14 11:19:52;;;;;;;7.50;5.63;;;;;;;12.60;24.92;96051.88;5075146;28;20460;-76
2022/03/14 11:22:20;;;;;;;6.77;4.60;;;;;;;12.40;24.66;96039.16;5080805;28;20438;-76
2022/03/14 11:24:48;;;;;;;9.87;5.50;;;;;;;11.68;25.39;96058.34;5079259;28;20491;-75